Time;durP1;ratioP1;P1;durP2;ratioP2;P2;SDS_P1;SDS_P2;PMS_P1;PMS_P2;Temp;Humidity;BMP_temperature;BMP_pressure;BME280_temperature;BME280_humidity;BME280_pressure;Samples;Min_cycle;Max_cycle;Signal;HPM_P1;HPM_P2
2022/01/24 00:02:00;;;;;;;;;;;;;;;-5.04;100.00;100695.23;105244;1271;61960;-80
2022/01/24 00:04:27;;;;;;;92.90;52.10;;;;;;;-5.11;100.00;100694.05;104913;1271;76160;-77
2022/01/24 00:06:54;;;;;;;91.70;56.80;;;;;;;-5.20;100.00;100697.62;105158;1271;70861;-77
2022/01/24 00:09:21;;;;;;;102.20;56.90;;;;;;;-5.27;100.00;100701.62;105327;1271;72158;-78
2022/01/24 00:28:20;;;;;;;104.90;59.90;;;;;;;-5.54;100.00;100701.30;105522;1271;63498;-78
2022/01/24 00:30:48;;;;;;;102.00;60.70;;;;;;;-5.58;100.00;100698.08;105703;1271;76191;-80
2022/01/24 00:33:15;;;;;;;114.80;63.10;;;;;;;-5.62;100.00;100701.94;105337;1271;70985;-79
2022/01/24 00:35:42;;;;;;;113.60;64.20;;;;;;;-5.66;100.00;100702.71;105000;1271;71453;-80
2022/01/24 00:38:09;;;;;;;109.90;63.60;;;;;;;-5.69;100.00;100704.03;105215;1271;62233;-79
2022/01/24 00:40:39;;;;;;;113.40;67.00;;;;;;;-5.71;100.00;100703.10;104987;1271;62147;-80
2022/01/24 00:43:23;;;;;;;106.10;63.50;;;;;;;-5.75;100.00;100701.44;105313;1271;76628;-77
2022/01/24 00:48:39;;;;;;;107.80;61.40;;;;;;;-5.82;100.00;100696.23;104466;1271;1003006;-79
2022/01/24 00:54:42;;;;;;;109.90;59.10;;;;;;;-5.99;100.00;100685.27;105184;1271;62072;-80
2022/01/24 00:56:51;;;;;;;111.90;62.80;;;;;;;-6.09;100.00;100689.82;105176;1271;76114;-80
2022/01/24 00:59:18;;;;;;;112.30;63.20;;;;;;;-6.18;100.00;100693.05;105179;1271;70079;-80
2022/01/24 01:01:44;;;;;;;110.80;62.80;;;;;;;-6.25;100.00;100697.36;105186;1271;73169;-79
2022/01/24 01:04:11;;;;;;;120.40;63.50;;;;;;;-6.31;100.00;100704.24;105183;1271;62421;-79
2022/01/24 01:06:41;;;;;;;114.60;65.90;;;;;;;-6.36;100.00;100709.48;105155;1270;62085;-80
2022/01/24 01:20:12;;;;;;;125.00;72.10;;;;;;;-6.16;100.00;100693.46;105146;1270;62273;-79
2022/01/24 01:22:39;;;;;;;124.10;75.40;;;;;;;-6.16;100.00;100688.63;105129;1271;77283;-79
2022/01/24 01:25:06;;;;;;;131.90;76.10;;;;;;;-6.15;100.00;100687.06;105203;1271;70251;-79
2022/01/24 01:27:39;;;;;;;115.70;65.90;;;;;;;-6.16;100.00;100687.56;104665;1271;74019;-79
2022/01/24 01:30:14;;;;;;;113.40;66.10;;;;;;;-6.17;100.00;100684.24;105193;1271;62002;-77
2022/01/24 01:32:56;;;;;;;116.40;66.70;;;;;;;-6.18;100.00;100678.17;105259;1271;62174;-78
2022/01/24 01:56:37;;;;;;;119.30;69.20;;;;;;;-6.70;100.00;100677.20;105185;1271;62067;-82
2022/01/24 01:59:04;;;;;;;121.90;67.10;;;;;;;-6.76;100.00;100685.84;105330;1270;62100;-80
2022/01/24 02:01:30;;;;;;;123.80;68.70;;;;;;;-6.80;100.00;100685.89;105211;1271;74541;-79
2022/01/24 02:03:57;;;;;;;125.00;69.40;;;;;;;-6.81;100.00;100684.64;104944;1271;69220;-79
2022/01/24 02:06:24;;;;;;;126.90;69.50;;;;;;;-6.85;100.00;100686.25;105259;1271;73312;-80
2022/01/24 02:09:03;;;;;;;139.30;74.00;;;;;;;-6.89;100.00;100691.14;105157;1271;62241;-80
2022/01/24 02:11:30;;;;;;;144.20;80.70;;;;;;;-6.89;100.00;100696.17;105280;1271;62027;-79
2022/01/24 02:14:01;;;;;;;141.40;85.10;;;;;;;-6.87;100.00;100696.40;105173;1271;77234;-79
2022/01/24 02:16:47;;;;;;;158.90;91.20;;;;;;;-6.84;100.00;100698.19;104705;1271;70417;-79
2022/01/24 02:24:37;;;;;;;148.20;83.40;;;;;;;-6.85;100.00;100701.98;105204;1271;62158;-78
2022/01/24 02:27:04;;;;;;;147.80;82.90;;;;;;;-6.91;100.00;100704.90;104937;1271;76120;-78
2022/01/24 02:29:54;;;;;;;138.00;77.70;;;;;;;-6.96;100.00;100704.07;105112;1271;69140;-78
2022/01/24 02:32:20;;;;;;;146.50;84.90;;;;;;;-7.03;100.00;100707.46;105106;1271;71310;-79
2022/01/24 02:34:49;;;;;;;165.50;94.00;;;;;;;-7.08;100.00;100705.75;105179;1271;62079;-80
2022/01/24 02:37:19;;;;;;;173.10;100.70;;;;;;;-7.12;100.00;100710.28;105320;1271;62101;-78
2022/01/24 02:48:26;;;;;;;155.00;88.70;;;;;;;-7.28;100.00;100706.33;105156;1271;62184;-80
2022/01/24 02:51:16;;;;;;;154.10;83.80;;;;;;;-7.33;100.00;100714.98;105188;1271;62046;-78
2022/01/24 02:53:43;;;;;;;;;;;;;;;-7.39;100.00;100720.64;104477;1271;1002931;-77
2022/01/24 02:56:09;;;;;;;146.60;81.90;;;;;;;-7.45;100.00;100715.06;104957;1271;62283;-79
2022/01/24 02:58:36;;;;;;;150.40;81.10;;;;;;;-7.53;100.00;100711.88;103704;1271;1003071;-79
2022/01/24 03:01:06;;;;;;;137.90;75.80;;;;;;;-7.64;100.00;100715.48;104502;1271;1003503;-80
2022/01/24 03:03:36;;;;;;;136.50;75.90;;;;;;;-7.77;100.00;100714.88;104517;1271;1003210;-79
2022/01/24 03:06:04;;;;;;;115.10;65.30;;;;;;;-7.87;100.00;100717.27;105411;1271;75671;-79
2022/01/24 03:08:31;;;;;;;144.20;78.90;;;;;;;-7.99;100.00;100723.08;104746;1271;70601;-79
2022/01/24 03:10:59;;;;;;;153.20;81.90;;;;;;;-8.07;100.00;100725.35;104923;1271;74141;-78
2022/01/24 03:15:55;;;;;;;151.80;80.00;;;;;;;-8.18;100.00;100726.17;105219;1271;62165;-78
2022/01/24 03:18:23;;;;;;;141.00;82.40;;;;;;;-8.25;100.00;100727.98;105288;1271;76890;-77
2022/01/24 03:20:50;;;;;;;142.30;82.00;;;;;;;-8.36;100.00;100728.48;105206;1271;70397;-79
2022/01/24 03:23:21;;;;;;;144.80;80.50;;;;;;;-8.43;100.00;100726.02;105169;1270;73237;-77
2022/01/24 03:25:48;;;;;;;165.10;89.10;;;;;;;-8.49;100.00;100732.14;105297;1271;61954;-78
2022/01/24 03:28:15;;;;;;;149.30;86.50;;;;;;;-8.54;100.00;100740.05;105175;1271;62066;-77
2022/01/24 03:30:42;;;;;;;162.10;89.90;;;;;;;-8.61;100.00;100741.52;105013;1271;76056;-77
2022/01/24 03:33:09;;;;;;;170.00;94.90;;;;;;;-8.64;100.00;100743.98;105230;1271;71003;-78
2022/01/24 03:35:36;;;;;;;169.30;96.80;;;;;;;-8.62;100.00;100747.34;105177;1271;74352;-80
2022/01/24 03:38:04;;;;;;;183.10;100.40;;;;;;;-8.62;100.00;100757.68;104898;1271;62109;-78
2022/01/24 03:40:31;;;;;;;168.50;97.90;;;;;;;-8.66;100.00;100759.77;105146;1271;62083;-77
2022/01/24 03:42:58;;;;;;;168.20;95.00;;;;;;;-8.68;100.00;100759.52;104408;1271;1003190;-79
2022/01/24 03:45:41;;;;;;;172.40;93.80;;;;;;;-8.70;100.00;100766.66;104984;1271;62183;-77
2022/01/24 03:50:36;;;;;;;169.50;94.80;;;;;;;-8.71;100.00;100775.27;105184;1271;62049;-77
2022/01/24 03:53:04;;;;;;;185.40;98.40;;;;;;;-8.67;100.00;100775.55;105176;1271;62105;-78
2022/01/24 03:55:33;;;;;;;182.00;98.50;;;;;;;-8.66;100.00;100775.27;105139;1271;75980;-79
2022/01/24 03:58:01;;;;;;;169.00;98.20;;;;;;;-8.67;100.00;100775.92;105084;1271;69407;-78
2022/01/24 04:00:28;;;;;;;175.80;96.50;;;;;;;-8.68;100.00;100778.27;105165;1270;74195;-78
2022/01/24 04:02:55;;;;;;;178.00;100.40;;;;;;;-8.71;100.00;100775.23;104917;1271;62222;-79
2022/01/24 04:05:22;;;;;;;175.50;97.50;;;;;;;-8.72;100.00;100776.25;105083;1271;62029;-77
2022/01/24 04:07:49;;;;;;;183.30;101.70;;;;;;;-8.73;100.00;100777.23;104932;1272;75115;-79
2022/01/24 04:10:18;;;;;;;178.10;98.90;;;;;;;-8.78;100.00;100780.31;105142;1271;69190;-80
2022/01/24 04:12:46;;;;;;;202.60;103.10;;;;;;;-8.83;100.00;100782.70;105169;1270;74355;-78
2022/01/24 04:18:12;;;;;;;190.60;103.80;;;;;;;-8.89;100.00;100784.02;105180;1271;62053;-78
2022/01/24 04:23:25;;;;;;;209.30;112.00;;;;;;;-8.98;100.00;100777.08;105152;1271;70454;-78
2022/01/24 04:25:51;;;;;;;201.70;107.30;;;;;;;-9.01;100.00;100778.16;105145;1271;73373;-78
2022/01/24 04:28:18;;;;;;;204.90;109.40;;;;;;;-9.07;100.00;100778.13;105137;1271;62063;-78
2022/01/24 04:30:47;;;;;;;223.10;117.50;;;;;;;-9.11;100.00;100778.99;105156;1271;62065;-77
2022/01/24 04:33:14;;;;;;;227.30;117.70;;;;;;;-9.14;100.00;100781.98;105170;1271;75474;-78
2022/01/24 04:35:40;;;;;;;219.90;115.90;;;;;;;-9.20;100.00;100781.56;105214;1271;69378;-78
2022/01/24 04:38:07;;;;;;;208.50;110.80;;;;;;;-9.25;100.00;100787.02;105167;1271;73346;-78
2022/01/24 04:40:34;;;;;;;218.20;115.60;;;;;;;-9.30;100.00;100794.04;105206;1271;62067;-78
2022/01/24 04:43:22;;;;;;;247.00;130.40;;;;;;;-9.36;99.98;100793.12;105193;1271;62073;-76
2022/01/24 04:56:41;;;;;;;252.30;126.30;;;;;;;-9.45;100.00;100800.11;104970;1271;62492;-76
2022/01/24 04:59:09;;;;;;;258.40;129.20;;;;;;;-9.44;100.00;100797.05;105299;1270;77181;-77
2022/01/24 05:01:36;;;;;;;267.40;135.30;;;;;;;-9.46;100.00;100793.38;105217;1271;70417;-77
2022/01/24 05:04:03;;;;;;;257.30;132.00;;;;;;;-9.43;100.00;100794.17;105211;1271;73096;-76
2022/01/24 05:06:29;;;;;;;266.10;131.50;;;;;;;-9.42;100.00;100791.64;104506;1271;1003293;-76
2022/01/24 05:08:56;;;;;;;261.10;134.10;;;;;;;-9.45;100.00;100787.23;104480;1271;1002880;-79
2022/01/24 05:11:35;;;;;;;251.80;129.40;;;;;;;-9.47;100.00;100790.20;105176;1271;62094;-76
2022/01/24 05:24:47;;;;;;;255.50;125.10;;;;;;;-9.76;99.83;100795.86;104995;1271;77390;-78
2022/01/24 05:27:14;;;;;;;245.70;125.80;;;;;;;-9.83;99.67;100797.98;104986;1271;69250;-74
2022/01/24 05:29:40;;;;;;;248.90;124.90;;;;;;;-9.91;99.33;100798.11;105325;1271;73264;-77
2022/01/24 05:32:08;;;;;;;262.60;128.90;;;;;;;-10.00;99.47;100806.16;104558;1271;1003544;-77
2022/01/24 05:34:36;;;;;;;296.50;140.10;;;;;;;-10.04;99.58;100808.39;105086;1271;62170;-77
2022/01/24 05:37:03;;;;;;;291.20;138.00;;;;;;;-10.07;99.67;100808.92;105222;1271;76337;-78
2022/01/24 05:39:30;;;;;;;275.60;132.30;;;;;;;-10.11;99.70;100805.13;105249;1271;69049;-76
2022/01/24 05:41:56;;;;;;;280.20;134.70;;;;;;;-10.14;99.59;100808.63;105296;1271;71451;-77
2022/01/24 05:44:23;;;;;;;309.20;148.00;;;;;;;-10.20;99.56;100812.83;105354;1271;62118;-76
2022/01/24 05:46:49;;;;;;;337.00;155.50;;;;;;;-10.22;99.52;100816.15;105647;1271;62060;-76
2022/01/24 05:49:16;;;;;;;314.60;153.10;;;;;;;-10.26;99.69;100822.85;105995;1271;75892;-78
2022/01/24 05:51:42;;;;;;;339.80;161.40;;;;;;;-10.29;99.66;100827.93;105872;1271;68181;-76
2022/01/24 05:54:11;;;;;;;324.70;160.20;;;;;;;-10.31;99.65;100831.78;105019;1271;1002741;-77
2022/01/24 05:56:38;;;;;;;318.40;155.60;;;;;;;-10.33;99.56;100828.77;105284;1271;62171;-79
2022/01/24 05:59:05;;;;;;;311.60;156.60;;;;;;;-10.35;99.42;100828.85;105606;1271;62056;-77
2022/01/24 06:01:32;;;;;;;349.70;167.70;;;;;;;-10.37;99.41;100837.69;105798;1271;75134;-78
2022/01/24 06:03:59;;;;;;;355.60;169.80;;;;;;;-10.39;99.59;100844.80;105734;1271;69043;-77
2022/01/24 06:06:25;;;;;;;374.30;183.20;;;;;;;-10.41;99.52;100845.23;105816;1271;73387;-79
2022/01/24 06:08:52;;;;;;;389.80;182.90;;;;;;;-10.41;99.50;100845.55;107328;1271;61390;-79
2022/01/24 06:11:20;;;;;;;405.10;187.90;;;;;;;-10.41;99.76;100849.17;107777;1270;62188;-78
2022/01/24 06:13:50;;;;;;;396.60;184.80;;;;;;;-10.39;99.96;100849.10;107933;1271;76205;-78
2022/01/24 06:16:17;;;;;;;377.20;175.00;;;;;;;-10.33;100.00;100851.77;107049;1270;1003039;-74
2022/01/24 06:18:44;;;;;;;374.80;169.60;;;;;;;-10.28;100.00;100851.14;106926;1273;1002607;-76
2022/01/24 06:21:11;;;;;;;382.70;183.60;;;;;;;-10.29;100.00;100851.11;106384;1271;61981;-77
2022/01/24 06:23:37;;;;;;;363.60;167.80;;;;;;;-10.28;100.00;100850.80;104503;1271;1003000;-77
2022/01/24 06:26:04;;;;;;;361.60;162.90;;;;;;;-10.30;100.00;100849.67;104530;1271;1003750;-78
2022/01/24 06:28:30;;;;;;;385.70;172.10;;;;;;;-10.37;100.00;100853.31;105052;1271;68894;-76
2022/01/24 06:30:58;;;;;;;370.00;169.00;;;;;;;-10.42;100.00;100847.25;105227;1271;73156;-78
2022/01/24 06:33:25;;;;;;;374.50;172.50;;;;;;;-10.48;100.00;100845.60;105260;1271;62188;-77
2022/01/24 06:35:52;;;;;;;376.60;174.40;;;;;;;-10.50;100.00;100843.94;105251;1271;62068;-76
2022/01/24 06:38:19;;;;;;;380.00;169.30;;;;;;;-10.54;99.89;100839.98;104948;1271;75635;-76
2022/01/24 06:40:45;;;;;;;416.60;187.10;;;;;;;-10.62;99.86;100837.38;105197;1271;70433;-76
2022/01/24 06:43:12;;;;;;;444.50;205.50;;;;;;;-10.66;99.77;100838.73;105127;1271;73246;-77
2022/01/24 06:45:39;;;;;;;425.50;199.30;;;;;;;-10.65;99.64;100837.05;105220;1271;62117;-77
2022/01/24 06:48:05;;;;;;;426.90;203.40;;;;;;;-10.63;99.53;100840.23;105241;1271;62025;-77
2022/01/24 06:50:32;;;;;;;403.50;194.70;;;;;;;-10.58;99.83;100854.56;104462;1271;1002980;-76
2022/01/24 06:52:58;;;;;;;420.50;199.50;;;;;;;-10.50;99.95;100855.96;105139;1271;63823;-76
2022/01/24 06:55:25;;;;;;;395.90;190.90;;;;;;;-10.43;99.94;100859.55;105249;1271;62641;-78
2022/01/24 06:57:52;;;;;;;394.60;194.70;;;;;;;-10.42;99.82;100858.73;105176;1271;62185;-76
2022/01/24 07:00:25;;;;;;;374.20;176.60;;;;;;;-10.40;99.93;100864.17;104448;1271;1003478;-73
2022/01/24 07:02:53;;;;;;;394.60;189.50;;;;;;;-10.42;99.94;100868.22;105207;1271;76837;-73
2022/01/24 07:05:20;;;;;;;401.90;191.40;;;;;;;-10.41;99.94;100871.15;104622;1271;1003011;-74
2022/01/24 07:07:47;;;;;;;412.30;199.40;;;;;;;-10.39;99.88;100869.20;104209;1271;1003049;-72
2022/01/24 07:10:15;;;;;;;387.30;196.00;;;;;;;-10.33;100.00;100867.73;105077;1271;62233;-73
2022/01/24 07:12:42;;;;;;;368.80;175.90;;;;;;;-10.26;100.00;100866.83;104862;1272;62280;-71
2022/01/24 07:15:13;;;;;;;391.60;192.10;;;;;;;-10.26;99.94;100866.32;104231;1271;1003006;-82
2022/01/24 07:18:02;;;;;;;381.10;180.50;;;;;;;-10.23;100.00;100874.36;104751;1271;70249;-78
2022/01/24 07:20:28;;;;;;;392.50;187.80;;;;;;;-10.18;99.99;100881.67;104944;1273;73670;-78
2022/01/24 07:22:55;;;;;;;384.50;184.10;;;;;;;-10.12;99.99;100882.11;105109;1271;63623;-79
2022/01/24 07:25:22;;;;;;;379.60;185.00;;;;;;;-10.03;100.00;100880.11;105107;1271;62084;-80
2022/01/24 07:27:49;;;;;;;391.50;191.00;;;;;;;-9.95;100.00;100883.39;105099;1271;74363;-85
2022/01/24 07:30:15;;;;;;;389.50;195.40;;;;;;;-9.85;100.00;100886.77;104990;1271;68396;-75
2022/01/24 07:32:42;;;;;;;408.70;206.30;;;;;;;-9.76;100.00;100889.26;105060;1271;74140;-77
2022/01/24 07:35:09;;;;;;;423.00;206.90;;;;;;;-9.66;99.99;100887.82;104771;1271;62400;-75
2022/01/24 07:37:36;;;;;;;413.00;209.10;;;;;;;-9.54;100.00;100889.91;104123;1276;1003316;-77
2022/01/24 07:40:06;;;;;;;397.40;201.60;;;;;;;-9.40;100.00;100891.35;105040;1271;76356;-77
2022/01/24 07:43:10;;;;;;;401.40;202.00;;;;;;;-9.27;100.00;100886.95;104933;1271;69230;-76
2022/01/24 07:45:26;;;;;;;386.90;203.30;;;;;;;-9.12;100.00;100891.55;105055;1271;73198;-75
2022/01/24 07:47:53;;;;;;;392.20;210.10;;;;;;;-9.00;100.00;100890.48;105042;1271;62093;-75
2022/01/24 07:50:23;;;;;;;385.70;202.00;;;;;;;-8.88;100.00;100889.11;105113;1271;62157;-76
2022/01/24 07:52:50;;;;;;;406.10;209.60;;;;;;;-8.77;100.00;100889.53;105170;1271;76891;-76
2022/01/24 07:55:16;;;;;;;399.20;209.10;;;;;;;-8.66;100.00;100885.36;105063;1271;70298;-76
2022/01/24 07:57:43;;;;;;;412.60;209.50;;;;;;;-8.50;100.00;100886.50;105026;1271;73254;-77
2022/01/24 08:00:11;;;;;;;413.30;213.00;;;;;;;-8.35;100.00;100884.14;104825;1271;62123;-76
2022/01/24 08:02:38;;;;;;;413.80;207.90;;;;;;;-8.21;100.00;100890.73;105120;1271;62415;-77
2022/01/24 08:05:06;;;;;;;403.10;205.60;;;;;;;-8.06;100.00;100888.36;105084;1271;76250;-78
2022/01/24 08:07:33;;;;;;;403.20;205.60;;;;;;;-7.93;100.00;100886.80;105300;1271;67642;-76
2022/01/24 08:10:00;;;;;;;408.50;211.90;;;;;;;-7.83;100.00;100894.45;104960;1271;74410;-76
2022/01/24 08:12:27;;;;;;;382.50;204.80;;;;;;;-7.73;100.00;100899.65;105250;1271;62212;-76
2022/01/24 08:14:53;;;;;;;350.40;185.90;;;;;;;-7.59;100.00;100896.19;104913;1271;62093;-75
2022/01/24 08:17:20;;;;;;;314.40;169.00;;;;;;;-7.43;100.00;100899.19;105217;1271;76890;-78
2022/01/24 08:19:47;;;;;;;249.10;133.20;;;;;;;-7.27;100.00;100891.96;105253;1271;71427;-75
2022/01/24 08:22:13;;;;;;;213.80;123.80;;;;;;;-7.12;100.00;100893.20;105234;1271;72176;-77
2022/01/24 08:24:40;;;;;;;222.10;125.10;;;;;;;-6.96;100.00;100895.81;105214;1271;62081;-78
2022/01/24 08:27:06;;;;;;;186.80;108.30;;;;;;;-6.81;100.00;100893.02;104943;1271;62162;-77
2022/01/24 08:29:33;;;;;;;149.70;90.60;;;;;;;-6.70;100.00;100893.58;105198;1271;75549;-76
2022/01/24 08:32:00;;;;;;;161.80;95.80;;;;;;;-6.59;100.00;100893.08;105215;1271;69267;-75
2022/01/24 08:34:26;;;;;;;149.00;90.30;;;;;;;-6.50;100.00;100887.50;105191;1271;73840;-76
2022/01/24 08:36:53;;;;;;;145.60;88.70;;;;;;;-6.41;100.00;100886.92;105198;1271;62097;-75
2022/01/24 08:39:19;;;;;;;143.00;84.00;;;;;;;-6.32;100.00;100885.65;105202;1271;62294;-76
2022/01/24 08:44:32;;;;;;;124.00;78.30;;;;;;;-6.10;100.00;100882.52;104712;1271;67858;-77
2022/01/24 08:46:59;;;;;;;110.20;71.80;;;;;;;-5.99;100.00;100886.86;105284;1271;73121;-75
2022/01/24 08:49:26;;;;;;;108.90;66.50;;;;;;;-5.86;100.00;100889.10;105223;1271;62041;-75
2022/01/24 08:51:53;;;;;;;108.00;62.90;;;;;;;-5.74;100.00;100885.66;105087;1271;62164;-78
2022/01/24 08:54:19;;;;;;;99.20;59.50;;;;;;;-5.64;100.00;100882.30;105206;1271;76017;-76
2022/01/24 08:56:47;;;;;;;92.90;59.20;;;;;;;-5.56;100.00;100882.73;105177;1271;70462;-77
2022/01/24 08:59:13;;;;;;;91.40;56.50;;;;;;;-5.46;100.00;100879.71;104999;1271;73515;-76
2022/01/24 09:01:40;;;;;;;92.70;54.80;;;;;;;-5.37;100.00;100880.48;105199;1271;62171;-75
2022/01/24 09:04:07;;;;;;;92.10;55.40;;;;;;;-5.30;100.00;100878.42;105221;1271;62133;-76
2022/01/24 09:06:34;;;;;;;94.90;58.40;;;;;;;-5.21;100.00;100876.93;105178;1271;76013;-76
2022/01/24 09:09:04;;;;;;;100.00;59.50;;;;;;;-5.09;100.00;100873.60;105177;1271;69262;-76
2022/01/24 09:11:34;;;;;;;99.50;62.00;;;;;;;-4.96;100.00;100873.95;105167;1271;71667;-76
2022/01/24 09:14:05;;;;;;;108.20;60.80;;;;;;;-4.84;100.00;100874.95;105279;1271;62219;-76
2022/01/24 09:16:32;;;;;;;93.80;57.20;;;;;;;-4.71;99.97;100880.14;105156;1271;62495;-77
2022/01/24 09:18:59;;;;;;;93.00;56.80;;;;;;;-4.61;99.72;100879.34;105114;1271;76993;-77
2022/01/24 09:21:28;;;;;;;99.50;59.80;;;;;;;-4.55;99.40;100878.27;105221;1271;68772;-76
2022/01/24 09:23:55;;;;;;;100.10;59.90;;;;;;;-4.47;99.26;100880.20;104945;1271;74427;-75
2022/01/24 09:26:22;;;;;;;101.60;62.30;;;;;;;-4.38;99.20;100876.08;105175;1271;62079;-75
2022/01/24 09:28:49;;;;;;;102.30;60.20;;;;;;;-4.26;99.22;100868.57;105194;1271;63629;-76
2022/01/24 09:31:15;;;;;;;98.70;58.90;;;;;;;-4.15;99.02;100861.34;105162;1271;75901;-77
2022/01/24 09:33:42;;;;;;;108.20;65.50;;;;;;;-4.07;98.88;100867.26;105003;1271;69323;-76
2022/01/24 09:36:09;;;;;;;97.50;59.20;;;;;;;-3.97;98.69;100868.86;104908;1274;73294;-78
2022/01/24 09:38:36;;;;;;;89.40;56.00;;;;;;;-3.86;98.69;100867.38;105151;1271;62149;-76
2022/01/24 09:41:08;;;;;;;87.40;55.40;;;;;;;-3.77;98.36;100865.99;105209;1271;62444;-76
2022/01/24 09:43:35;;;;;;;87.20;55.30;;;;;;;-3.71;98.15;100861.78;104971;1271;77267;-75
2022/01/24 09:46:02;;;;;;;86.30;52.80;;;;;;;-3.62;98.07;100862.50;105210;1270;68529;-76
2022/01/24 09:48:29;;;;;;;87.60;53.10;;;;;;;-3.52;97.97;100863.38;105232;1271;73114;-76
2022/01/24 09:50:56;;;;;;;85.90;52.20;;;;;;;-3.47;97.63;100868.19;105206;1271;62155;-77
2022/01/24 09:53:25;;;;;;;87.30;54.80;;;;;;;-3.41;97.42;100866.22;105210;1271;62098;-76
2022/01/24 09:55:53;;;;;;;85.10;52.30;;;;;;;-3.31;97.30;100868.66;105225;1271;74921;-76
2022/01/24 09:58:20;;;;;;;88.80;54.80;;;;;;;-3.21;97.26;100864.52;105112;1271;70545;-75
2022/01/24 10:00:47;;;;;;;89.00;56.80;;;;;;;-3.11;96.96;100866.27;105207;1271;72303;-75
2022/01/24 10:03:14;;;;;;;80.80;50.80;;;;;;;-3.02;96.86;100864.00;105226;1271;62171;-75
2022/01/24 10:05:42;;;;;;;84.60;54.50;;;;;;;-2.94;96.56;100860.68;105116;1271;62110;-75
2022/01/24 10:08:15;;;;;;;88.90;52.80;;;;;;;-2.85;96.48;100855.95;104892;1271;76170;-75
2022/01/24 10:10:49;;;;;;;82.10;51.30;;;;;;;-2.72;96.43;100844.17;105248;1271;69382;-74
2022/01/24 10:19:07;;;;;;;85.60;52.80;;;;;;;-2.35;95.50;100838.48;105220;1271;62013;-75
2022/01/24 10:22:00;;;;;;;81.30;52.80;;;;;;;-2.30;95.47;100827.60;105244;1271;74671;-77
2022/01/24 10:24:56;;;;;;;82.30;51.50;;;;;;;-2.19;95.30;100826.55;104689;1279;69274;-75
2022/01/24 10:27:28;;;;;;;88.60;52.20;;;;;;;-2.07;95.09;100824.98;104522;1279;71611;-76
2022/01/24 10:30:10;;;;;;;83.60;53.30;;;;;;;-1.98;94.90;100825.09;104881;1278;62081;-76
2022/01/24 10:32:44;;;;;;;;;;;;;;;-1.87;94.91;100824.38;104650;1280;62182;-77
2022/01/24 10:35:36;;;;;;;88.10;53.70;;;;;;;-1.72;94.97;100817.77;104717;1280;75552;-75
2022/01/24 10:43:52;;;;;;;73.30;45.10;;;;;;;-1.56;93.86;100806.62;104597;1279;62281;-74
2022/01/24 10:46:26;;;;;;;;;;;;;;;-1.58;93.83;100798.92;104538;1280;62208;-82
2022/01/24 10:49:06;;;;;;;68.90;41.10;;;;;;;-1.60;93.56;100799.42;104937;1280;76521;-76
2022/01/24 10:51:38;;;;;;;58.20;38.70;;;;;;;-1.59;93.48;100796.13;104599;1280;70151;-76
2022/01/24 10:54:05;;;;;;;60.30;37.80;;;;;;;-1.56;93.38;100789.89;104302;1282;72611;-76
2022/01/24 10:56:35;;;;;;;64.40;38.40;;;;;;;-1.57;93.04;100787.44;104502;1279;62209;-77
2022/01/24 10:59:22;;;;;;;61.40;37.40;;;;;;;-1.52;92.92;100789.77;104710;1280;62221;-76
2022/01/24 11:01:55;;;;;;;54.10;34.20;;;;;;;-1.47;92.41;100783.54;105038;1271;77100;-78
2022/01/24 11:04:24;;;;;;;50.30;32.90;;;;;;;-1.44;92.30;100779.21;105406;1271;69243;-77
2022/01/24 11:06:57;;;;;;;46.00;31.10;;;;;;;-1.37;92.11;100785.05;105227;1271;74269;-77
2022/01/24 11:09:26;;;;;;;42.90;28.90;;;;;;;-1.31;91.86;100789.81;105219;1271;62209;-78
2022/01/24 11:11:54;;;;;;;46.20;29.90;;;;;;;-1.27;91.57;100791.59;105267;1271;62085;-79
2022/01/24 11:14:24;;;;;;;47.00;28.30;;;;;;;-1.19;91.49;100785.23;105259;1271;77164;-76
2022/01/24 11:16:52;;;;;;;;;;;;;;;-1.16;91.31;100786.81;105448;1271;69414;-76
2022/01/24 11:19:40;;;;;;;47.00;29.30;;;;;;;-1.14;91.09;100785.10;105236;1271;72426;-76
2022/01/24 11:22:19;;;;;;;43.30;28.50;;;;;;;-1.07;90.68;100780.45;105205;1271;62153;-77
2022/01/24 11:24:54;;;;;;;36.60;25.60;;;;;;;-1.02;90.55;100776.30;105291;1271;62084;-76
2022/01/24 11:27:22;;;;;;;34.20;21.90;;;;;;;-0.92;90.47;100774.65;105237;1271;76203;-76
2022/01/24 11:29:53;;;;;;;29.60;19.40;;;;;;;-0.79;90.24;100770.05;105261;1271;68625;-76
2022/01/24 11:32:20;;;;;;;28.20;18.90;;;;;;;-0.71;90.25;100768.17;105246;1271;73340;-76
2022/01/24 11:34:53;;;;;;;37.80;23.80;;;;;;;-0.69;89.56;100765.92;105000;1271;62053;-78
2022/01/24 11:37:37;;;;;;;38.10;27.10;;;;;;;-0.67;89.63;100759.66;105145;1274;62101;-76
2022/01/24 11:40:09;;;;;;;47.10;31.70;;;;;;;-0.59;89.63;100759.89;105023;1274;75585;-76
2022/01/24 11:42:36;;;;;;;49.30;29.60;;;;;;;-0.48;89.48;100753.69;105159;1271;70409;-76
2022/01/24 11:45:14;;;;;;;44.10;28.20;;;;;;;-0.42;89.11;100748.30;105202;1271;73144;-76
2022/01/24 11:57:47;;;;;;;48.00;30.90;;;;;;;-0.59;88.94;100741.39;105192;1271;69640;-77
2022/01/24 12:00:21;;;;;;;40.70;26.60;;;;;;;-0.61;88.87;100737.18;105230;1271;74232;-77
2022/01/24 12:02:49;;;;;;;41.00;27.30;;;;;;;-0.61;88.69;100739.98;105196;1271;62127;-78
2022/01/24 12:09:05;;;;;;;40.40;24.60;;;;;;;-0.61;88.41;100732.13;105176;1271;79833;-77
2022/01/24 12:11:35;;;;;;;41.50;28.90;;;;;;;-0.65;88.28;100729.48;104976;1274;68321;-76
2022/01/24 12:14:14;;;;;;;187.90;111.30;;;;;;;-0.66;88.10;100734.35;105155;1271;73450;-77
2022/01/24 12:16:43;;;;;;;48.40;33.00;;;;;;;-0.68;88.00;100729.11;105259;1271;62168;-78
2022/01/24 12:19:12;;;;;;;35.00;24.40;;;;;;;-0.70;88.05;100721.58;105059;1272;62101;-75
2022/01/24 12:21:41;;;;;;;37.80;23.50;;;;;;;-0.69;87.93;100714.44;105340;1271;76454;-77
2022/01/24 12:24:11;;;;;;;42.10;24.50;;;;;;;-0.67;87.60;100718.64;105314;1271;68788;-78
2022/01/24 12:26:44;;;;;;;38.10;25.60;;;;;;;-0.60;87.62;100717.64;105207;1271;74154;-77
2022/01/24 12:29:26;;;;;;;45.70;29.20;;;;;;;-0.54;87.63;100713.48;105262;1271;62191;-75
2022/01/24 12:31:56;;;;;;;39.40;26.50;;;;;;;-0.44;87.71;100715.28;105007;1272;61983;-77
2022/01/24 12:34:25;;;;;;;43.80;30.00;;;;;;;-0.38;87.36;100716.36;105262;1271;76226;-75
2022/01/24 12:37:08;;;;;;;57.30;31.00;;;;;;;-0.35;87.43;100713.41;105206;1271;67480;-76
2022/01/24 12:39:45;;;;;;;48.90;31.80;;;;;;;-0.27;87.19;100712.92;105339;1271;72158;-77
2022/01/24 12:42:33;;;;;;;41.50;29.50;;;;;;;-0.22;87.00;100721.86;105250;1271;62135;-76
2022/01/24 12:47:57;;;;;;;42.20;29.20;;;;;;;-0.24;86.02;100717.32;105194;1271;75998;-79
2022/01/24 12:50:24;;;;;;;120.60;90.40;;;;;;;-0.24;85.90;100721.51;105399;1270;69278;-76
2022/01/24 12:52:53;;;;;;;42.60;26.60;;;;;;;-0.22;85.81;100722.73;105212;1271;73222;-75
2022/01/24 12:55:19;;;;;;;52.20;45.10;;;;;;;-0.17;85.72;100725.55;105177;1271;62110;-77
2022/01/24 12:57:46;;;;;;;51.50;36.90;;;;;;;-0.10;85.46;100725.59;105175;1271;62108;-75
2022/01/24 13:00:18;;;;;;;40.80;28.90;;;;;;;-0.04;85.30;100723.69;105156;1271;75906;-77
2022/01/24 13:02:45;;;;;;;38.80;26.30;;;;;;;0.04;85.36;100726.69;105207;1271;69209;-76
2022/01/24 13:05:20;;;;;;;41.20;27.50;;;;;;;0.09;85.39;100728.64;105013;1271;71596;-76
2022/01/24 13:07:51;;;;;;;39.00;24.00;;;;;;;0.16;85.15;100726.39;105229;1271;62117;-76
2022/01/24 13:10:26;;;;;;;41.00;25.90;;;;;;;0.24;85.00;100726.75;105326;1271;148094;-76
2022/01/24 13:13:01;;;;;;;38.90;25.70;;;;;;;0.32;84.84;100722.77;105350;1271;75643;-76